createdAt,value
2023-01-23T00:01:37.878Z,31.35
2023-01-23T00:04:05.172Z,30.13
2023-01-23T00:09:25.534Z,30.63
2023-01-23T00:11:52.779Z,29.05
2023-01-23T00:14:19.905Z,29.25
2023-01-23T00:21:38.158Z,27.38
2023-01-23T00:33:55.107Z,24.98
2023-01-23T00:36:22.951Z,25.85
2023-01-23T00:41:15.998Z,22.02
2023-01-23T00:43:43.130Z,20.48
2023-01-23T00:48:36.172Z,22.65
2023-01-23T00:51:03.335Z,18.25
2023-01-23T00:55:55.866Z,18.33
2023-01-23T00:58:24.070Z,23.80
2023-01-23T01:00:51.195Z,19.00
2023-01-23T01:03:19.639Z,34.35
2023-01-23T01:05:47.370Z,18.52
2023-01-23T01:08:14.486Z,20.42
2023-01-23T01:10:41.735Z,22.02
2023-01-23T01:13:09.589Z,14.20
2023-01-23T01:15:37.912Z,13.80
2023-01-23T01:18:05.406Z,13.25
2023-01-23T01:20:32.752Z,13.93
2023-01-23T01:23:00.839Z,16.35
2023-01-23T01:25:28.202Z,21.92
2023-01-23T01:27:56.369Z,14.30
2023-01-23T01:30:23.893Z,15.50
2023-01-23T01:32:50.859Z,21.73
2023-01-23T01:45:06.037Z,18.42
2023-01-23T01:47:33.241Z,14.30
2023-01-23T02:10:29.683Z,11.27
2023-01-23T02:12:56.683Z,11.38
2023-01-23T02:15:23.686Z,12.05
2023-01-23T02:22:49.979Z,11.50
2023-01-23T02:25:22.145Z,11.05
2023-01-23T02:27:49.324Z,10.73
2023-01-23T02:30:18.780Z,11.40
2023-01-23T02:32:46.036Z,12.13
2023-01-23T02:35:16.039Z,12.07
2023-01-23T02:37:44.124Z,12.00
2023-01-23T02:47:34.070Z,12.73
2023-01-23T02:50:01.423Z,12.82
2023-01-23T02:52:29.628Z,12.65
2023-01-23T03:00:06.479Z,11.95
2023-01-23T03:02:35.647Z,12.13
2023-01-23T03:05:02.889Z,12.73
2023-01-23T03:39:46.036Z,15.27
2023-01-23T04:45:46.147Z,14.85
2023-01-23T05:03:33.208Z,15.10
2023-01-23T05:21:13.076Z,16.35
2023-01-23T05:28:32.288Z,16.27
2023-01-23T05:40:55.473Z,16.08
2023-01-23T05:43:51.035Z,14.68
2023-01-23T05:46:47.324Z,15.63
2023-01-23T05:54:05.821Z,16.13
2023-01-23T06:11:42.805Z,16.10
2023-01-23T06:14:10.288Z,16.60
2023-01-23T06:21:28.898Z,34.47
2023-01-23T06:23:56.862Z,28.98
2023-01-23T06:26:23.896Z,22.48
2023-01-23T06:28:51.233Z,18.08
2023-01-23T06:31:18.567Z,19.55
2023-01-23T06:33:49.212Z,17.25
2023-01-23T06:36:16.205Z,19.92
2023-01-23T06:38:43.356Z,22.38
2023-01-23T06:41:10.941Z,22.65
2023-01-23T06:43:41.416Z,20.73
2023-01-23T06:46:15.334Z,27.58
2023-01-23T06:53:33.514Z,30.05
2023-01-23T06:56:01.872Z,28.00
2023-01-23T07:03:23.940Z,35.53
2023-01-23T07:05:51.776Z,37.45
2023-01-23T07:08:35.702Z,38.65
2023-01-23T07:11:02.946Z,33.90
2023-01-23T07:13:30.227Z,23.75
2023-01-23T07:15:58.185Z,27.55
2023-01-23T07:25:45.934Z,21.13
2023-01-23T07:28:12.944Z,20.20
2023-01-23T07:30:40.179Z,23.25
2023-01-23T07:33:07.431Z,24.40
2023-01-23T07:35:34.442Z,21.42
2023-01-23T07:38:01.801Z,21.00
2023-01-23T07:40:29.524Z,21.55
2023-01-23T07:42:57.251Z,21.88
2023-01-23T07:45:24.268Z,18.05
2023-01-23T07:50:17.095Z,20.38
2023-01-23T07:52:44.315Z,26.13
2023-01-23T07:55:11.552Z,19.55
2023-01-23T07:57:38.682Z,21.60
2023-01-23T08:00:06.282Z,15.85
2023-01-23T08:02:39.643Z,20.10
2023-01-23T08:05:07.129Z,20.27
2023-01-23T08:07:34.138Z,19.45
2023-01-23T08:14:52.512Z,20.52
2023-01-23T08:17:19.757Z,20.80
2023-01-23T08:19:46.885Z,20.98
2023-01-23T08:22:13.892Z,22.55
2023-01-23T08:31:58.336Z,22.23
2023-01-23T08:34:25.550Z,20.50
2023-01-23T08:36:52.682Z,22.13
2023-01-23T08:41:49.079Z,22.58
2023-01-23T08:44:16.444Z,22.52
2023-01-23T08:49:11.386Z,22.48
2023-01-23T08:51:38.781Z,22.65
2023-01-23T08:59:07.200Z,20.60
2023-01-23T09:01:34.362Z,20.23
2023-01-23T09:04:01.483Z,15.32
2023-01-23T09:06:28.969Z,20.65
2023-01-23T09:08:56.098Z,25.85
2023-01-23T09:13:52.248Z,18.55
2023-01-23T09:16:20.931Z,18.83
2023-01-23T09:18:48.159Z,16.63
2023-01-23T09:21:16.618Z,18.45
2023-01-23T09:23:44.123Z,17.95
2023-01-23T09:26:13.789Z,19.38
2023-01-23T09:28:42.840Z,20.08
2023-01-23T09:31:11.813Z,16.17
2023-01-23T09:36:04.984Z,19.00
2023-01-23T09:38:34.399Z,17.60
2023-01-23T09:46:11.079Z,16.13
2023-01-23T09:48:48.208Z,16.50
2023-01-23T09:53:47.907Z,16.77
2023-01-23T09:56:17.787Z,17.42
2023-01-23T09:58:53.378Z,15.40
2023-01-23T10:01:20.326Z,16.48
2023-01-23T10:03:47.512Z,17.85
2023-01-23T10:06:21.351Z,17.77
2023-01-23T10:09:07.201Z,16.88
2023-01-23T10:11:34.082Z,17.20
2023-01-23T10:14:23.292Z,16.13
2023-01-23T10:40:04.495Z,16.10
2023-01-23T10:42:31.852Z,14.73
2023-01-23T10:47:33.195Z,15.18
2023-01-23T10:57:26.004Z,17.42
2023-01-23T10:59:56.122Z,14.50
2023-01-23T11:48:24.037Z,15.80
2023-01-23T11:51:23.717Z,17.25
2023-01-23T12:33:16.311Z,16.27
2023-01-23T12:49:00.376Z,16.33
2023-01-23T12:51:32.820Z,14.32
2023-01-23T12:59:14.553Z,21.25
2023-01-23T13:01:51.196Z,16.70
2023-01-23T13:04:24.279Z,18.27
2023-01-23T13:06:51.524Z,17.38
2023-01-23T13:09:37.371Z,16.65
2023-01-23T13:12:22.030Z,15.50
2023-01-23T13:15:12.830Z,15.27
2023-01-23T13:17:49.168Z,16.58
2023-01-23T13:23:19.880Z,14.40
2023-01-23T13:31:35.792Z,14.23
2023-01-23T13:34:15.273Z,14.65
2023-01-23T13:42:13.675Z,13.50
2023-01-23T13:44:59.871Z,15.05
2023-01-23T14:21:42.901Z,14.15
2023-01-23T14:24:27.436Z,13.32
2023-01-23T14:27:02.397Z,13.65
2023-01-23T14:36:55.312Z,15.48
2023-01-23T14:39:23.739Z,15.55
2023-01-23T14:41:51.217Z,15.60
2023-01-23T14:44:22.824Z,16.10
2023-01-23T14:56:53.379Z,17.05
2023-01-23T15:07:32.441Z,16.55
2023-01-23T15:15:20.651Z,17.40
2023-01-23T15:17:48.347Z,18.70
2023-01-23T15:28:41.879Z,18.30
2023-01-23T15:33:52.330Z,18.08
2023-01-23T15:48:38.067Z,20.63
2023-01-23T15:53:30.983Z,22.17
2023-01-23T15:55:58.125Z,21.05
2023-01-23T16:00:50.677Z,19.92
2023-01-23T16:03:17.699Z,18.67
2023-01-23T16:05:44.701Z,18.25
2023-01-23T16:08:17.433Z,19.90
2023-01-23T16:10:44.368Z,21.20
2023-01-23T16:13:12.909Z,19.02
2023-01-23T16:15:40.289Z,31.75
2023-01-23T16:18:07.772Z,25.55
2023-01-23T16:25:42.873Z,21.00
2023-01-23T16:28:21.954Z,23.05
2023-01-23T16:30:50.955Z,22.40
2023-01-23T16:33:18.696Z,23.02
2023-01-23T16:35:45.827Z,23.85
2023-01-23T16:38:23.901Z,23.33
2023-01-23T16:40:53.561Z,37.65
2023-01-23T16:43:21.478Z,26.13
2023-01-23T16:45:48.817Z,22.58
2023-01-23T16:53:17.210Z,27.17
2023-01-23T16:55:44.765Z,25.35
2023-01-23T17:03:21.404Z,22.63
2023-01-23T17:05:48.284Z,25.63
2023-01-23T17:13:16.503Z,25.20
2023-01-23T17:15:43.519Z,19.52
2023-01-23T17:18:36.820Z,20.13
2023-01-23T17:23:31.644Z,20.27
2023-01-23T17:26:01.101Z,21.08
2023-01-23T17:30:54.999Z,19.92
2023-01-23T17:33:26.603Z,22.05
2023-01-23T17:35:54.404Z,20.10
2023-01-23T17:38:25.891Z,21.58
2023-01-23T17:40:53.137Z,21.17
2023-01-23T17:45:48.873Z,22.00
2023-01-23T17:48:20.543Z,20.60
2023-01-23T17:50:47.527Z,19.70
2023-01-23T17:53:15.258Z,36.13
2023-01-23T17:58:12.410Z,33.47
2023-01-23T18:00:40.024Z,29.48
2023-01-23T18:07:59.347Z,22.88
2023-01-23T18:10:29.345Z,22.92
2023-01-23T18:13:04.635Z,23.23
2023-01-23T18:15:34.991Z,22.58
2023-01-23T18:25:40.895Z,16.90
2023-01-23T18:28:11.099Z,24.38
2023-01-23T18:33:15.707Z,24.55
2023-01-23T18:35:42.714Z,17.30
2023-01-23T18:38:41.984Z,23.20
2023-01-23T18:41:16.286Z,21.05
2023-01-23T18:46:17.074Z,24.48
2023-01-23T18:48:45.161Z,21.35
2023-01-23T18:51:25.545Z,21.42
2023-01-23T18:56:48.516Z,24.13
2023-01-23T18:59:38.793Z,34.80
2023-01-23T19:02:11.918Z,35.33
2023-01-23T19:04:43.591Z,21.15
2023-01-23T19:07:15.184Z,25.88
2023-01-23T19:09:46.949Z,26.67
2023-01-23T19:12:24.147Z,27.85
2023-01-23T19:15:10.740Z,26.08
2023-01-23T19:17:53.311Z,27.08
2023-01-23T19:30:22.933Z,19.80
2023-01-23T19:32:50.516Z,22.90
2023-01-23T19:35:17.754Z,28.00
2023-01-23T19:37:45.540Z,26.55
2023-01-23T19:47:42.376Z,34.00
2023-01-23T19:50:12.819Z,28.00
2023-01-23T19:52:40.117Z,24.67
2023-01-23T19:55:15.347Z,28.00
2023-01-23T19:57:44.658Z,29.25
2023-01-23T20:00:15.767Z,32.95
2023-01-23T20:02:42.632Z,35.92
2023-01-23T20:07:48.512Z,28.10
2023-01-23T20:15:08.573Z,26.52
2023-01-23T20:17:35.913Z,42.63
2023-01-23T20:20:03.785Z,32.42
2023-01-23T20:22:30.653Z,30.45
2023-01-23T20:24:57.689Z,21.85
2023-01-23T20:29:53.135Z,26.02
2023-01-23T20:32:20.341Z,26.98
2023-01-23T20:37:13.055Z,15.35
2023-01-23T20:39:40.900Z,16.10
2023-01-23T20:44:33.351Z,20.00
2023-01-23T20:47:00.366Z,18.88
2023-01-23T20:52:35.869Z,9.93
2023-01-23T20:55:02.903Z,11.57
2023-01-23T21:00:15.768Z,12.70
2023-01-23T21:02:43.005Z,8.02
2023-01-23T21:07:35.580Z,11.45
2023-01-23T21:10:03.031Z,11.35
2023-01-23T21:14:55.623Z,11.75
2023-01-23T21:17:22.611Z,12.60
2023-01-23T21:19:49.637Z,10.57
2023-01-23T21:22:16.598Z,13.38
2023-01-23T21:24:43.845Z,11.85
2023-01-23T21:27:10.757Z,13.07
2023-01-23T21:29:37.973Z,12.68
2023-01-23T21:32:04.901Z,14.07
2023-01-23T21:36:57.665Z,14.60
2023-01-23T21:39:24.693Z,12.45
2023-01-23T21:44:17.260Z,12.63
2023-01-23T21:46:44.459Z,13.93
2023-01-23T21:49:11.535Z,14.75
2023-01-23T21:51:38.494Z,14.32
2023-01-23T21:54:05.535Z,14.40
2023-01-23T22:01:42.804Z,14.23
2023-01-23T22:04:09.885Z,11.98
2023-01-23T22:06:38.003Z,13.35
2023-01-23T22:09:05.566Z,14.13
2023-01-23T22:11:32.653Z,15.95
2023-01-23T22:13:59.542Z,16.58
2023-01-23T22:16:45.581Z,16.17
2023-01-23T22:19:14.904Z,15.23
2023-01-23T22:24:07.905Z,15.82
2023-01-23T22:26:34.965Z,15.98
2023-01-23T22:29:02.008Z,17.98
2023-01-23T22:31:29.286Z,18.05
2023-01-23T22:33:56.410Z,17.83
2023-01-23T22:36:23.511Z,18.25
2023-01-23T22:38:51.066Z,16.45
2023-01-23T22:41:18.462Z,18.92
2023-01-23T22:43:45.470Z,16.92
2023-01-23T22:46:12.364Z,18.35
2023-01-23T22:48:39.207Z,19.95
2023-01-23T22:51:13.194Z,14.45
2023-01-23T22:53:40.439Z,19.42
2023-01-23T22:56:07.731Z,19.00
2023-01-23T22:58:35.065Z,19.60
2023-01-23T23:01:02.245Z,20.88
2023-01-23T23:03:33.431Z,17.45
2023-01-23T23:06:02.082Z,19.40
2023-01-23T23:08:29.328Z,21.05
2023-01-23T23:11:02.556Z,20.60
2023-01-23T23:13:30.736Z,18.88
2023-01-23T23:15:58.024Z,19.38
2023-01-23T23:18:24.886Z,21.52
2023-01-23T23:20:51.768Z,21.98
2023-01-23T23:23:19.253Z,20.05
2023-01-23T23:25:46.280Z,19.48
2023-01-23T23:28:13.142Z,20.10
2023-01-23T23:35:31.160Z,19.75
2023-01-23T23:40:23.855Z,21.05
2023-01-23T23:42:50.828Z,23.08
2023-01-23T23:45:17.756Z,21.15
2023-01-23T23:50:10.554Z,22.27
2023-01-23T23:52:37.432Z,19.95
2023-01-23T23:55:04.696Z,19.63
2023-01-23T23:57:31.555Z,21.35
2023-01-23T23:59:58.462Z,22.13
